createdAt,value
2023-05-12T00:00:03.091Z,13.93
2023-05-12T00:02:31.691Z,12.55
2023-05-12T00:07:24.842Z,12.05
2023-05-12T00:09:51.346Z,12.27
2023-05-12T00:12:18.586Z,11.88
2023-05-12T00:14:45.694Z,11.77
2023-05-12T00:17:13.791Z,12.80
2023-05-12T00:19:43.772Z,12.85
2023-05-12T00:22:11.465Z,12.63
2023-05-12T00:24:38.369Z,12.73
2023-05-12T00:27:05.718Z,12.90
2023-05-12T00:29:33.007Z,10.68
2023-05-12T00:31:59.744Z,10.55
2023-05-12T00:36:53.628Z,9.40
2023-05-12T00:39:20.116Z,10.85
2023-05-12T00:41:47.762Z,10.05
2023-05-12T00:44:14.359Z,8.25
2023-05-12T00:46:41.129Z,8.93
2023-05-12T00:49:07.811Z,9.73
2023-05-12T00:51:34.546Z,9.13
2023-05-12T00:54:01.272Z,9.65
2023-05-12T00:56:28.297Z,9.20
2023-05-12T00:58:54.915Z,10.30
2023-05-12T01:01:21.616Z,9.18
2023-05-12T01:03:48.122Z,9.32
2023-05-12T01:06:22.165Z,8.52
2023-05-12T01:08:49.318Z,9.85
2023-05-12T01:11:15.881Z,9.30
2023-05-12T01:13:42.648Z,8.23
2023-05-12T01:16:13.146Z,8.13
2023-05-12T01:18:42.771Z,9.00
2023-05-12T01:21:11.244Z,8.32
2023-05-12T01:23:42.604Z,10.18
2023-05-12T01:26:10.329Z,8.95
2023-05-12T01:28:37.687Z,9.18
2023-05-12T01:31:06.215Z,8.68
2023-05-12T01:33:34.041Z,9.55
2023-05-12T01:36:00.564Z,8.23
2023-05-12T01:38:28.345Z,7.57
2023-05-12T01:40:56.283Z,8.43
2023-05-12T01:43:22.968Z,7.93
2023-05-12T01:45:49.461Z,8.00
2023-05-12T01:48:16.349Z,7.43
2023-05-12T01:50:43.044Z,6.97
2023-05-12T01:53:10.600Z,7.10
2023-05-12T01:55:37.235Z,7.20
2023-05-12T01:58:04.040Z,7.50
2023-05-12T02:00:30.716Z,6.78
2023-05-12T02:05:24.137Z,7.05
2023-05-12T02:07:50.910Z,6.40
2023-05-12T02:10:18.344Z,6.15
2023-05-12T02:12:45.213Z,5.88
2023-05-12T02:15:11.815Z,6.07
2023-05-12T02:20:06.028Z,5.93
2023-05-12T02:22:33.755Z,6.03
2023-05-12T02:25:00.392Z,6.85
2023-05-12T02:27:27.013Z,6.43
2023-05-12T02:29:53.995Z,6.72
2023-05-12T02:32:21.566Z,6.18
2023-05-12T02:34:48.129Z,6.57
2023-05-12T02:37:14.644Z,7.43
2023-05-12T02:39:41.188Z,6.72
2023-05-12T02:42:07.858Z,7.80
2023-05-12T02:44:34.355Z,8.07
2023-05-12T02:47:01.051Z,6.40
2023-05-12T02:49:27.535Z,7.57
2023-05-12T02:51:55.128Z,7.00
2023-05-12T02:54:21.687Z,7.95
2023-05-12T02:56:48.377Z,7.22
2023-05-12T02:59:14.882Z,7.63
2023-05-12T03:01:41.415Z,7.68
2023-05-12T03:04:09.260Z,7.10
2023-05-12T03:06:35.692Z,6.93
2023-05-12T03:09:02.248Z,8.02
2023-05-12T03:11:28.813Z,7.60
2023-05-12T03:13:55.604Z,8.18
2023-05-12T03:16:22.154Z,6.57
2023-05-12T03:18:49.074Z,7.22
2023-05-12T03:21:15.847Z,7.18
2023-05-12T03:23:43.046Z,6.70
2023-05-12T03:28:35.970Z,7.78
2023-05-12T03:31:02.413Z,7.72
2023-05-12T03:33:30.236Z,7.80
2023-05-12T03:35:57.030Z,7.75
2023-05-12T03:38:23.705Z,7.25
2023-05-12T03:40:52.843Z,7.55
2023-05-12T03:43:19.617Z,8.20
2023-05-12T03:48:13.071Z,6.90
2023-05-12T03:50:39.483Z,7.47
2023-05-12T03:53:06.023Z,7.45
2023-05-12T03:55:32.457Z,6.75
2023-05-12T03:57:59.407Z,6.78
2023-05-12T04:00:26.089Z,6.78
2023-05-12T04:02:52.718Z,6.43
2023-05-12T04:05:19.191Z,5.70
2023-05-12T04:07:45.960Z,4.85
2023-05-12T04:10:12.445Z,3.88
2023-05-12T04:12:39.244Z,3.53
2023-05-12T04:15:06.807Z,4.60
2023-05-12T04:17:34.440Z,3.33
2023-05-12T04:20:01.075Z,3.33
2023-05-12T04:22:27.687Z,2.63
2023-05-12T04:24:54.168Z,3.00
2023-05-12T04:27:20.547Z,2.72
2023-05-12T04:29:47.196Z,2.45
2023-05-12T04:32:13.823Z,2.40
2023-05-12T04:34:41.409Z,2.28
2023-05-12T04:37:08.118Z,2.72
2023-05-12T04:39:34.769Z,2.63
2023-05-12T04:42:02.103Z,1.83
2023-05-12T04:44:28.528Z,2.47
2023-05-12T04:46:56.357Z,1.60
2023-05-12T04:49:23.083Z,1.65
2023-05-12T04:51:49.589Z,1.90
2023-05-12T04:54:16.267Z,1.98
2023-05-12T04:56:42.741Z,1.90
2023-05-12T04:59:09.344Z,1.30
2023-05-12T05:01:35.860Z,2.22
2023-05-12T05:04:02.644Z,1.50
2023-05-12T05:08:55.836Z,0.73
2023-05-12T05:11:22.768Z,1.88
2023-05-12T05:13:49.900Z,1.35
2023-05-12T05:16:16.892Z,1.23
2023-05-12T05:18:46.432Z,1.42
2023-05-12T05:21:16.732Z,0.98
2023-05-12T05:23:43.634Z,1.40
2023-05-12T05:26:10.601Z,1.38
2023-05-12T05:28:39.712Z,1.52
2023-05-12T05:31:06.891Z,1.30
2023-05-12T05:33:33.631Z,1.20
2023-05-12T05:36:00.220Z,1.33
2023-05-12T05:38:27.086Z,1.40
2023-05-12T05:40:54.678Z,1.20
2023-05-12T05:43:21.592Z,1.50
2023-05-12T05:45:49.699Z,1.65
2023-05-12T05:48:16.714Z,1.85
2023-05-12T05:50:43.642Z,1.90
2023-05-12T05:53:10.288Z,0.98
2023-05-12T05:55:36.825Z,1.08
2023-05-12T05:58:03.540Z,1.08
2023-05-12T06:00:30.080Z,1.05
2023-05-12T06:02:57.128Z,1.67
2023-05-12T06:07:50.419Z,1.10
2023-05-12T06:10:16.962Z,1.95
2023-05-12T06:12:43.492Z,1.27
2023-05-12T06:15:11.127Z,1.00
2023-05-12T06:17:38.255Z,1.60
2023-05-12T06:20:06.511Z,0.80
2023-05-12T06:22:34.682Z,1.10
2023-05-12T06:25:02.129Z,0.90
2023-05-12T06:27:28.948Z,0.50
2023-05-12T06:29:55.523Z,0.57
2023-05-12T06:32:22.007Z,0.30
2023-05-12T06:34:48.862Z,0.30
2023-05-12T06:39:41.728Z,0.80
2023-05-12T06:42:08.546Z,0.63
2023-05-12T06:44:35.003Z,0.22
2023-05-12T06:47:01.548Z,0.50
2023-05-12T06:49:28.019Z,0.30
2023-05-12T06:51:54.573Z,0.40
2023-05-12T06:54:21.102Z,0.50
2023-05-12T06:56:47.675Z,0.10
2023-05-12T06:59:14.383Z,0.57
2023-05-12T07:01:42.941Z,0.28
2023-05-12T07:04:09.519Z,0.85
2023-05-12T07:06:36.062Z,0.28
2023-05-12T07:09:02.651Z,0.30
2023-05-12T07:11:29.445Z,0.43
2023-05-12T07:13:56.355Z,0.50
2023-05-12T07:16:22.903Z,0.30
2023-05-12T07:18:49.736Z,0.80
2023-05-12T07:23:42.861Z,0.65
2023-05-12T07:26:10.822Z,0.50
2023-05-12T07:28:38.023Z,0.80
2023-05-12T07:31:07.145Z,1.33
2023-05-12T07:33:35.231Z,1.67
2023-05-12T07:36:04.529Z,1.55
2023-05-12T07:38:31.868Z,1.13
2023-05-12T07:40:59.394Z,1.30
2023-05-12T07:43:26.285Z,2.00
2023-05-12T07:45:52.784Z,1.50
2023-05-12T07:50:45.861Z,1.60
2023-05-12T07:53:13.113Z,2.70
2023-05-12T07:58:06.038Z,1.65
2023-05-12T08:00:32.594Z,1.85
2023-05-12T08:03:00.171Z,2.47
2023-05-12T08:05:26.960Z,1.85
2023-05-12T08:07:53.771Z,2.63
2023-05-12T08:12:47.074Z,2.03
2023-05-12T08:15:13.621Z,1.98
2023-05-12T08:17:40.150Z,1.80
2023-05-12T08:22:34.100Z,1.77
2023-05-12T08:25:00.570Z,1.90
2023-05-12T08:27:27.475Z,1.70
2023-05-12T08:29:53.888Z,1.90
2023-05-12T08:32:20.645Z,1.50
2023-05-12T08:34:47.309Z,1.50
2023-05-12T08:37:13.955Z,1.60
2023-05-12T08:39:40.790Z,1.33
2023-05-12T08:42:22.337Z,1.58
2023-05-12T08:44:49.271Z,2.00
2023-05-12T08:47:18.730Z,1.33
2023-05-12T08:49:46.603Z,1.40
2023-05-12T08:52:14.916Z,1.50
2023-05-12T08:54:52.346Z,1.42
2023-05-12T08:57:23.182Z,1.20
2023-05-12T08:59:49.957Z,1.15
2023-05-12T09:02:17.349Z,1.27
2023-05-12T09:04:44.142Z,1.20
2023-05-12T09:07:11.161Z,1.38
2023-05-12T09:12:08.911Z,1.23
2023-05-12T09:14:37.595Z,1.30
2023-05-12T09:17:04.970Z,1.20
2023-05-12T09:19:32.456Z,1.65
2023-05-12T09:22:00.258Z,1.58
2023-05-12T09:24:40.528Z,1.55
2023-05-12T09:27:07.642Z,1.67
2023-05-12T09:29:42.155Z,1.80
2023-05-12T09:32:14.680Z,1.63
2023-05-12T09:34:43.403Z,1.70
2023-05-12T09:37:10.018Z,1.48
2023-05-12T09:39:38.878Z,2.05
2023-05-12T09:42:11.425Z,2.00
2023-05-12T09:47:10.050Z,2.67
2023-05-12T09:49:36.640Z,2.53
2023-05-12T09:54:32.108Z,2.50
2023-05-12T09:57:00.705Z,2.13
2023-05-12T09:59:30.999Z,2.00
2023-05-12T10:02:00.861Z,2.60
2023-05-12T10:04:58.452Z,2.10
2023-05-12T10:07:27.527Z,2.17
2023-05-12T10:09:59.294Z,2.20
2023-05-12T10:12:25.846Z,2.25
2023-05-12T10:14:53.915Z,2.13
2023-05-12T10:17:21.028Z,2.17
2023-05-12T10:19:48.936Z,2.03
2023-05-12T10:22:17.276Z,2.15
2023-05-12T10:24:45.591Z,2.15
2023-05-12T10:27:13.582Z,2.58
2023-05-12T10:29:41.009Z,2.08
2023-05-12T10:32:07.753Z,2.17
2023-05-12T10:34:36.611Z,2.20
2023-05-12T10:37:10.959Z,2.03
2023-05-12T10:39:47.359Z,2.00
2023-05-12T10:42:17.072Z,1.92
2023-05-12T10:44:51.885Z,1.90
2023-05-12T10:47:18.878Z,2.35
2023-05-12T10:49:48.183Z,2.58
2023-05-12T10:52:20.119Z,2.30
2023-05-12T10:54:47.013Z,2.20
2023-05-12T10:57:18.188Z,2.10
2023-05-12T10:59:50.871Z,1.90
2023-05-12T11:02:20.974Z,2.10
2023-05-12T11:04:53.502Z,2.00
2023-05-12T11:07:27.070Z,2.00
2023-05-12T11:09:59.217Z,2.05
2023-05-12T11:12:32.407Z,2.38
2023-05-12T11:15:01.713Z,2.05
2023-05-12T11:17:29.044Z,1.77
2023-05-12T11:19:56.728Z,1.83
2023-05-12T11:22:24.190Z,1.92
2023-05-12T11:24:52.379Z,2.00
2023-05-12T11:27:20.554Z,2.00
2023-05-12T11:29:59.916Z,1.92
2023-05-12T11:32:27.376Z,1.50
2023-05-12T11:34:55.650Z,2.10
2023-05-12T11:37:22.670Z,1.73
2023-05-12T11:39:49.319Z,2.20
2023-05-12T11:42:19.688Z,1.90
2023-05-12T11:44:50.599Z,1.92
2023-05-12T11:47:19.557Z,1.88
2023-05-12T11:49:52.017Z,2.22
2023-05-12T11:55:00.709Z,2.35
2023-05-12T11:57:27.929Z,1.58
2023-05-12T12:00:00.138Z,2.42
2023-05-12T12:02:27.371Z,2.15
2023-05-12T12:04:54.066Z,1.92
2023-05-12T12:07:31.522Z,1.95
2023-05-12T12:09:59.231Z,2.80
2023-05-12T12:12:25.974Z,5.15
2023-05-12T12:14:52.439Z,1.98
2023-05-12T12:19:47.642Z,2.10
2023-05-12T12:22:14.154Z,3.10
2023-05-12T12:24:40.730Z,2.45
2023-05-12T12:27:07.167Z,2.25
2023-05-12T12:32:00.705Z,2.45
2023-05-12T12:34:27.315Z,2.30
2023-05-12T12:39:21.658Z,2.42
2023-05-12T12:41:48.240Z,2.40
2023-05-12T12:44:15.165Z,2.15
2023-05-12T12:46:42.121Z,2.42
2023-05-12T12:51:45.148Z,2.47
2023-05-12T12:54:13.059Z,2.47
2023-05-12T12:56:39.698Z,2.22
2023-05-12T12:59:06.367Z,2.33
2023-05-12T13:01:33.840Z,2.40
2023-05-12T13:04:01.063Z,2.63
2023-05-12T13:06:27.680Z,2.33
2023-05-12T13:08:54.048Z,2.45
2023-05-12T13:11:20.506Z,2.58
2023-05-12T13:16:13.827Z,2.20
2023-05-12T13:18:40.371Z,2.38
2023-05-12T13:23:33.238Z,2.35
2023-05-12T13:28:26.768Z,2.83
2023-05-12T13:30:53.351Z,2.15
2023-05-12T13:33:20.314Z,2.15
2023-05-12T13:35:47.030Z,2.17
2023-05-12T13:38:13.723Z,2.63
2023-05-12T13:40:41.469Z,2.50
2023-05-12T13:43:08.404Z,2.17
2023-05-12T13:45:34.822Z,2.55
2023-05-12T13:48:01.388Z,2.15
2023-05-12T13:50:28.352Z,2.35
2023-05-12T13:52:55.166Z,2.20
2023-05-12T13:57:49.287Z,1.80
2023-05-12T14:00:18.630Z,2.00
2023-05-12T14:02:45.551Z,2.40
2023-05-12T14:05:12.026Z,2.13
2023-05-12T14:10:05.455Z,2.60
2023-05-12T14:12:32.356Z,2.33
2023-05-12T14:17:46.283Z,2.47
2023-05-12T14:20:13.082Z,2.33
2023-05-12T14:22:41.763Z,2.15
2023-05-12T14:25:08.649Z,2.58
2023-05-12T14:27:35.484Z,2.25
2023-05-12T14:30:02.284Z,2.45
2023-05-12T14:32:29.036Z,2.17
2023-05-12T14:34:55.745Z,2.28
2023-05-12T14:37:22.287Z,2.35
2023-05-12T14:42:15.288Z,2.38
2023-05-12T14:47:09.194Z,2.65
2023-05-12T14:49:35.945Z,3.88
2023-05-12T14:54:29.396Z,2.72
2023-05-12T14:59:23.169Z,2.95
2023-05-12T15:04:16.368Z,3.30
2023-05-12T15:06:42.923Z,2.35
2023-05-12T15:11:36.817Z,3.38
2023-05-12T15:14:04.650Z,2.55
2023-05-12T15:16:33.006Z,4.32
2023-05-12T15:18:59.699Z,4.13
2023-05-12T15:23:52.544Z,3.38
2023-05-12T15:26:32.123Z,2.90
2023-05-12T15:28:59.835Z,2.90
2023-05-12T15:31:28.700Z,3.25
2023-05-12T15:33:56.580Z,2.85
2023-05-12T15:36:23.250Z,2.88
2023-05-12T15:38:49.732Z,2.88
2023-05-12T15:41:16.289Z,2.90
2023-05-12T15:46:10.859Z,3.40
2023-05-12T15:48:39.103Z,2.45
2023-05-12T15:51:05.677Z,2.78
2023-05-12T15:53:32.216Z,2.90
2023-05-12T15:56:03.668Z,2.63
2023-05-12T15:58:30.643Z,2.53
2023-05-12T16:00:57.234Z,2.72
2023-05-12T16:03:24.308Z,2.35
2023-05-12T16:05:51.111Z,2.60
2023-05-12T16:08:18.892Z,2.40
2023-05-12T16:10:45.601Z,2.42
2023-05-12T16:15:38.713Z,2.95
2023-05-12T16:18:09.150Z,2.65
2023-05-12T16:20:37.523Z,3.28
2023-05-12T16:23:04.562Z,2.47
2023-05-12T16:25:31.543Z,2.60
2023-05-12T16:27:58.218Z,2.45
2023-05-12T16:30:25.008Z,3.17
2023-05-12T16:35:18.216Z,2.65
2023-05-12T16:37:46.279Z,2.55
2023-05-12T16:42:39.672Z,2.35
2023-05-12T16:45:06.961Z,2.67
2023-05-12T16:47:34.092Z,2.92
2023-05-12T16:50:00.761Z,2.88
2023-05-12T16:52:27.495Z,3.05
2023-05-12T16:57:22.366Z,3.13
2023-05-12T16:59:48.734Z,2.83
2023-05-12T17:02:15.840Z,2.60
2023-05-12T17:04:43.281Z,3.10
2023-05-12T17:09:36.634Z,2.88
2023-05-12T17:12:04.335Z,2.30
2023-05-12T17:14:30.906Z,2.78
2023-05-12T17:19:24.027Z,3.13
2023-05-12T17:21:51.013Z,2.92
2023-05-12T17:24:18.338Z,3.00
2023-05-12T17:26:45.265Z,2.50
2023-05-12T17:29:11.959Z,2.70
2023-05-12T17:31:38.765Z,2.83
2023-05-12T17:34:05.811Z,2.60
2023-05-12T17:36:33.188Z,2.85
2023-05-12T17:38:59.952Z,2.58
2023-05-12T17:41:28.972Z,2.53
2023-05-12T17:43:55.910Z,3.13
2023-05-12T17:46:23.070Z,2.60
2023-05-12T17:48:49.973Z,2.75
2023-05-12T17:51:16.877Z,2.47
2023-05-12T17:53:43.840Z,3.33
2023-05-12T17:56:11.366Z,3.28
2023-05-12T17:58:37.955Z,3.83
2023-05-12T18:03:30.925Z,2.78
2023-05-12T18:08:23.921Z,2.88
2023-05-12T18:10:50.423Z,2.63
2023-05-12T18:13:17.272Z,3.25
2023-05-12T18:15:43.781Z,2.95
2023-05-12T18:18:10.899Z,2.85
2023-05-12T18:20:37.857Z,2.97
2023-05-12T18:23:04.842Z,3.60
2023-05-12T18:25:31.744Z,4.60
2023-05-12T18:27:58.282Z,4.32
2023-05-12T18:32:51.883Z,4.25
2023-05-12T18:35:18.417Z,3.95
2023-05-12T18:40:12.181Z,3.47
2023-05-12T18:42:38.844Z,3.85
2023-05-12T18:45:06.077Z,3.88
2023-05-12T18:47:33.532Z,4.13
2023-05-12T18:50:00.325Z,3.97
2023-05-12T18:52:26.831Z,4.57
2023-05-12T18:54:53.297Z,3.58
2023-05-12T18:57:19.800Z,3.97
2023-05-12T19:02:13.348Z,3.60
2023-05-12T19:04:39.863Z,3.30
2023-05-12T19:07:09.482Z,2.75
2023-05-12T19:09:36.834Z,2.60
2023-05-12T19:12:05.635Z,2.80
2023-05-12T19:14:32.225Z,2.47
2023-05-12T19:16:58.624Z,2.85
2023-05-12T19:19:26.010Z,3.40
2023-05-12T19:21:52.702Z,3.97
2023-05-12T19:24:19.502Z,3.35
2023-05-12T19:26:46.538Z,2.90
2023-05-12T19:31:40.526Z,2.78
2023-05-12T19:34:07.831Z,2.70
2023-05-12T19:36:35.822Z,2.53
2023-05-12T19:39:02.852Z,2.78
2023-05-12T19:41:29.645Z,3.13
2023-05-12T19:46:23.422Z,2.78
2023-05-12T19:48:51.209Z,3.80
2023-05-12T19:51:17.676Z,3.92
2023-05-12T19:56:10.696Z,3.22
2023-05-12T19:58:38.217Z,3.88
2023-05-12T20:01:04.905Z,3.00
2023-05-12T20:03:32.051Z,3.70
2023-05-12T20:05:58.865Z,3.55
2023-05-12T20:08:25.643Z,2.95
2023-05-12T20:10:52.296Z,4.00
2023-05-12T20:13:18.725Z,3.45
2023-05-12T20:15:45.310Z,3.47
2023-05-12T20:18:14.609Z,3.63
2023-05-12T20:20:42.131Z,3.10
2023-05-12T20:23:09.466Z,2.85
2023-05-12T20:25:36.556Z,3.65
2023-05-12T20:28:03.504Z,3.20
2023-05-12T20:30:31.227Z,3.33
2023-05-12T20:32:57.873Z,3.67
2023-05-12T20:37:51.508Z,3.40
2023-05-12T20:40:19.701Z,3.03
2023-05-12T20:42:46.984Z,3.97
2023-05-12T20:45:14.303Z,4.10
2023-05-12T20:47:41.947Z,3.60
2023-05-12T20:50:09.295Z,4.20
2023-05-12T20:52:37.331Z,3.63
2023-05-12T20:55:07.906Z,3.30
2023-05-12T20:57:34.604Z,3.10
2023-05-12T21:00:01.412Z,2.85
2023-05-12T21:04:55.956Z,3.40
2023-05-12T21:07:22.408Z,3.60
2023-05-12T21:09:49.419Z,3.35
2023-05-12T21:12:16.098Z,3.40
2023-05-12T21:14:44.181Z,4.05
2023-05-12T21:17:12.033Z,2.80
2023-05-12T21:19:40.658Z,3.88
2023-05-12T21:22:08.262Z,3.90
2023-05-12T21:24:36.336Z,4.38
2023-05-12T21:27:04.164Z,3.78
2023-05-12T21:29:31.923Z,3.78
2023-05-12T21:31:58.857Z,3.33
2023-05-12T21:34:25.856Z,3.85
2023-05-12T21:36:52.471Z,4.18
2023-05-12T21:39:18.955Z,3.20
2023-05-12T21:41:45.905Z,4.70
2023-05-12T21:44:12.846Z,3.45
2023-05-12T21:46:39.748Z,3.67
2023-05-12T21:49:06.332Z,5.13
2023-05-12T21:51:35.456Z,6.43
2023-05-12T21:54:02.135Z,4.80
2023-05-12T21:56:28.572Z,4.95
2023-05-12T21:58:55.732Z,5.78
2023-05-12T22:01:22.389Z,5.53
2023-05-12T22:03:49.593Z,5.50
2023-05-12T22:06:16.317Z,5.45
2023-05-12T22:08:43.889Z,4.00
2023-05-12T22:11:11.158Z,4.57
2023-05-12T22:13:37.892Z,4.43
2023-05-12T22:16:04.856Z,3.90
2023-05-12T22:18:31.900Z,4.40
2023-05-12T22:20:58.873Z,5.03
2023-05-12T22:23:25.306Z,4.25
2023-05-12T22:25:51.965Z,4.70
2023-05-12T22:28:18.538Z,4.88
2023-05-12T22:30:45.133Z,4.43
2023-05-12T22:33:11.631Z,5.07
2023-05-12T22:35:38.118Z,4.82
2023-05-12T22:40:32.773Z,4.82
2023-05-12T22:43:01.148Z,5.32
2023-05-12T22:45:28.102Z,5.03
2023-05-12T22:47:54.935Z,3.95
2023-05-12T22:52:48.795Z,4.88
2023-05-12T22:55:15.699Z,3.97
2023-05-12T22:57:43.641Z,4.68
2023-05-12T23:00:10.543Z,3.80
2023-05-12T23:02:37.503Z,5.30
2023-05-12T23:05:04.509Z,4.35
2023-05-12T23:07:31.053Z,4.43
2023-05-12T23:09:58.682Z,4.72
2023-05-12T23:12:25.739Z,4.78
2023-05-12T23:14:52.173Z,4.78
2023-05-12T23:17:20.619Z,4.38
2023-05-12T23:19:47.132Z,3.85
2023-05-12T23:22:13.639Z,4.50
2023-05-12T23:24:40.546Z,5.43
2023-05-12T23:27:07.149Z,4.53
2023-05-12T23:29:34.439Z,4.75
2023-05-12T23:32:01.340Z,4.10
2023-05-12T23:34:28.312Z,5.45
2023-05-12T23:36:54.910Z,4.47
2023-05-12T23:41:47.809Z,4.13
2023-05-12T23:44:14.238Z,3.70
2023-05-12T23:46:42.047Z,4.32
2023-05-12T23:49:09.332Z,3.97
2023-05-12T23:51:36.393Z,3.78
2023-05-12T23:54:03.282Z,4.78
2023-05-12T23:56:29.693Z,4.22
2023-05-12T23:58:56.327Z,4.55
